Amity, Maine
Current Conditions -  °F | °C
As of 5:53 PM on Friday 19 Dec 2014 (Local Time) from KHUL Reporting Station
Clear Clear  
Wind Chill: 15°   Ceiling: Unl
Heat Index: 21°   Visibility: 10mi
Dew Point: 17°   Wind: 5mph
Humidity: 85%   Direction: 360°N
Pressure: 29.97"   Gusts: NA
Location:  45.8952°N, 67.8479°W
Report Text: KHUL 192253Z AUTO 36004KT 10SM CLR M06/M08 A2997 RMK AO2 SLP157 T10611083
Loading
Personal Weather Stations






























Interactive Weather Map New forecast layout! Learn more

10-Day Weather Forecast

Advertisements
Track Severe Weather on mobile